Latest Coastal Weather Observations for St Helens

IDT60701

Issued at 1:21 am EST Monday 27 June 2016 (issued every 10 minutes, with the page automatically refreshed every 10 minutes)

About coastal observations | Map of coastal stations | Coastal observations for TAS | Marine services | Other Formats
Station Details ID: 092120 Name: ST HELENS AERODROME Lat: -41.34 Lon: 148.28 Height: 48.0 m
Data from the previous 72 hours. | See also: Recent months at St Helens
Date/Time
EST
Temp

°C
Wind Pressure Rain
since 9am
mm
Weather Cloud Vis
km
Sea
Height
m
Swell
Dir
 
Speed
knots
Gust
knots
hPa Trend Height
m
Period
s
Dir
27/01:00am 9.2 N 8 11 1011.0 - 0.0 - - 10 - - - -
27/12:30am 9.1 NW 8 12 1011.2 - 0.0 - - 10 - - - -
27/12:00am 9.3 NW 8 13 1011.4 - 0.0 - Mostly clear 10 - - - -
 
Date/Time
EST
Temp

°C
Wind Pressure Rain
since 9am
mm
Weather Cloud Vis
km
Sea
Height
m
Swell
Dir
 
Speed
knots
Gust
knots
hPa Trend Height
m
Period
s
Dir
26/11:30pm 9.1 W 6 9 1011.6 - 0.0 - - 10 - - - -
26/11:00pm 8.5 WNW 6 9 1011.6 - 0.0 - - 10 - - - -
26/10:30pm 8.7 WNW 6 9 1011.7 - 0.0 - - 10 - - - -
26/10:00pm 8.6 NW 6 9 1011.8 - 0.0 - - 10 - - - -
26/09:30pm 9.0 NW 8 14 1012.0 - 0.0 - Partly cloudy 10 - - - -
26/09:00pm 9.6 WNW 9 17 1012.1 - 0.0 - Mostly cloudy 10 - - - -
26/08:30pm 8.8 N 5 7 1012.4 - 0.0 - Partly cloudy 10 - - - -
26/08:00pm 9.2 WNW 6 9 1012.5 - 0.0 - Partly cloudy 10 - - - -
26/07:30pm 9.4 W 7 12 1012.5 - 0.0 - Partly cloudy 10 - - - -
26/07:00pm 9.4 WNW 7 13 1012.3 - 0.0 - - 10 - - - -
26/06:30pm 9.6 WNW 8 13 1012.4 - 0.0 - - 10 - - - -
26/06:00pm 10.0 W 6 11 1012.4 - 0.0 - - 10 - - - -
26/05:30pm 10.0 WNW 8 13 1012.6 - 0.0 - - 10 - - - -
26/05:00pm 10.0 W 4 6 1012.5 - 0.0 - Partly cloudy 10 - - - -
26/04:30pm 11.0 WNW 5 8 1012.4 - 0.0 - - 10 - - - -
26/04:00pm 11.7 W 7 11 1012.4 - 0.0 - - 10 - - - -
26/03:30pm 12.1 WNW 8 16 1012.6 - 0.0 - - 10 - - - -
26/03:00pm 13.0 W 7 17 1012.6 - 0.0 - - 10 - - - -
26/02:30pm 13.3 W 7 15 1012.7 - 0.0 - - 10 - - - -
26/02:00pm 13.3 WSW 7 13 1013.0 - 0.0 - Partly cloudy 10 - - - -
26/01:30pm 13.5 W 8 15 1013.2 - 0.0 - Partly cloudy 10 - - - -
26/01:00pm 13.6 W 7 15 1013.4 - 0.0 - - 10 - - - -
26/12:30pm 13.5 W 8 14 1013.9 - 0.0 - - 10 - - - -
26/12:00pm 13.6 WNW 7 12 1014.2 - 0.0 - - 10 - - - -
26/11:30am 12.6 WNW 5 11 1014.7 - 0.0 - - 10 - - - -
26/11:00am 11.0 N 4 6 1015.2 - 0.0 - - 10 - - - -
26/10:30am 9.8 NNW 5 7 1015.7 - 0.0 - - 10 - - - -
26/10:00am 7.2 NW 5 7 1016.0 - 0.0 - - 10 - - - -
26/09:30am 5.6 NW 5 7 1016.2 - 0.0 - - 10 - - - -
26/09:00am 4.6 NNW 7 8 1016.3 - 0.2 Fine Partly cloudy 30 - - - -
26/08:30am 3.3 NW 6 8 1016.2 - 0.2 - - 10 - - - -
26/08:00am 2.9 WNW 6 7 1016.3 - 0.2 - - 10 - - - -
26/07:30am 2.6 NNW 6 8 1016.2 - 0.2 - - 10 - - - -
26/07:00am 2.6 NW 8 10 1016.3 - 0.0 - - 10 - - - -
26/06:30am 3.0 NW 7 8 1016.2 - 0.0 - - 10 - - - -
26/06:00am 2.9 NW 6 9 1016.3 - 0.0 - - 10 - - - -
26/05:30am 2.7 NNW 8 9 1015.9 - 0.0 - - 10 - - - -
26/05:00am 2.4 NW 8 10 1015.7 - 0.0 - - 10 - - - -
26/04:30am 2.5 NNW 8 10 1015.8 - 0.0 - - 10 - - - -
26/04:00am 2.5 NNW 7 9 1015.7 - 0.0 - - 10 - - - -
26/03:30am 2.9 NW 9 11 1015.9 - 0.0 - - 10 - - - -
26/03:00am 3.2 NW 8 10 1016.3 - 0.0 - - 10 - - - -
26/02:30am 3.9 N 6 7 1016.3 - 0.0 - - 10 - - - -
26/02:00am 3.3 NNW 5 8 1016.4 - 0.0 - - 10 - - - -
26/01:30am 3.6 NNW 6 8 1016.4 - 0.0 - - 10 - - - -
26/01:00am 4.2 NNW 6 9 1016.7 - 0.0 - - 10 - - - -
26/12:30am 4.0 N 5 8 1016.9 - 0.0 - - 10 - - - -
26/12:00am 4.3 NNW 6 8 1017.2 - 0.0 - - 10 - - - -
 
Date/Time
EST
Temp

°C
Wind Pressure Rain
since 9am
mm
Weather Cloud Vis
km
Sea
Height
m
Swell
Dir
 
Speed
knots
Gust
knots
hPa Trend Height
m
Period
s
Dir
25/11:30pm 4.8 N 7 8 1017.2 - 0.0 - - 10 - - - -
25/11:00pm 5.1 N 7 9 1017.5 - 0.0 - - 10 - - - -
25/10:30pm 4.6 NW 6 8 1017.4 - 0.0 - - 10 - - - -
25/10:00pm 4.9 NW 5 7 1017.7 - 0.0 - Partly cloudy 10 - - - -
25/09:30pm 5.0 NW 5 6 1017.8 - 0.0 - Partly cloudy 10 - - - -
25/09:00pm 5.0 W 2 - 1017.8 - 0.0 - - - - - - -
25/08:30pm 5.2 WNW 6 9 1017.8 - 0.0 - Partly cloudy 10 - - - -
25/08:00pm 5.5 NW 6 7 1017.9 - 0.0 - Cloudy 10 - - - -
25/07:30pm 5.4 WNW 4 7 1018.0 - 0.0 - Partly cloudy 10 - - - -
25/07:00pm 6.1 NW 1 5 1018.1 - 0.0 - Partly cloudy 10 - - - -
25/06:30pm 7.0 N 2 5 1017.9 - 0.0 - Cloudy 10 - - - -
25/06:00pm 7.6 N 4 6 1017.8 - 0.0 - Cloudy 10 - - - -
25/05:30pm 8.2 NNW 4 7 1017.6 - 0.0 - Partly cloudy 10 - - - -
25/05:00pm 8.9 CALM 0 5 1017.4 - 0.0 - Cloudy 10 - - - -
25/04:30pm 9.7 CALM 0 0 1017.2 - 0.0 - Cloudy 10 - - - -
25/03:30pm 10.7 SSW 4 6 1017.2 - 0.0 - - 10 - - - -
25/03:00pm 10.9 SW 5 9 1017.2 - 0.0 - - 10 - - - -
25/02:30pm 10.3 SSW 10 17 1016.9 - 0.0 - - 10 - - - -
25/02:00pm 10.3 SW 8 15 1016.9 - 0.0 - - 10 - - - -
25/01:30pm 10.2 SSW 8 15 1016.8 - 0.0 - - 10 - - - -
25/01:00pm 9.9 SW 9 15 1016.7 - 0.0 - - 10 - - - -
25/12:30pm 9.9 SSW 9 16 1017.1 - 0.0 - - 10 - - - -
25/12:00pm 9.3 SSW 8 13 1017.4 - 0.0 - - 10 - - - -
25/11:30am 8.9 SSW 11 18 1017.4 - 0.0 - - 10 - - - -
25/11:03am 8.3 SSW 15 26 1017.1 - 0.0 - - 10 - - - -
25/11:00am 8.3 SSW 13 21 1017.2 - 0.0 - - 10 - - - -
25/10:33am 7.9 SSW 15 26 1017.1 - 0.0 - - 10 - - - -
25/10:30am 7.8 SSW 14 23 1017.1 - 0.0 - - 10 - - - -
25/10:02am 7.5 SW 15 25 1017.1 - 0.0 - - 10 - - - -
25/10:00am 7.5 SSW 14 25 1017.1 - 0.0 - - 10 - - - -
25/09:30am 7.0 SSW 10 18 1016.7 - 0.0 - - 10 - - - -
25/09:00am 4.1 WSW 6 14 1016.6 - 0.0 Fine Mostly clear 30 - - - -
25/08:30am 1.5 WNW 3 6 1016.5 - 0.0 - - 10 - - - -
25/08:00am 0.6 W 3 6 1016.3 - 0.0 - - 10 - - - -
25/07:30am 0.4 NW 5 8 1016.0 - 0.0 - - 10 - - - -
25/07:00am 0.1 NNW 6 8 1015.5 - 0.0 - - 10 - - - -
25/06:30am 0.4 W 3 5 1015.2 - 0.0 - - 10 - - - -
25/06:00am 1.2 N 7 11 1014.8 - 0.0 - - 10 - - - -
25/05:30am 1.0 NNW 4 6 1014.5 - 0.0 - - 10 - - - -
25/05:00am 1.6 NNW 5 7 1014.1 - 0.0 - - 10 - - - -
25/04:30am 1.9 NW 5 8 1013.7 - 0.0 - - 10 - - - -
25/04:00am 2.0 NW 5 6 1013.6 - 0.0 - - 10 - - - -
25/03:30am 4.4 W 5 7 1013.1 - 0.0 - - 10 - - - -
25/03:00am 4.8 SW 10 14 1012.6 - 0.0 - - 10 - - - -
25/02:30am 5.6 SW 11 21 1012.4 - 0.0 - - 10 - - - -
25/02:03am 5.8 SW 15 25 1011.8 - 0.0 - - 10 - - - -
25/02:00am 6.0 SW 15 21 1011.7 - 0.0 - - 10 - - - -
25/01:33am 5.7 SW 15 27 1011.3 - 0.0 - - 10 - - - -
25/01:30am 5.7 SW 14 27 1011.2 - 0.0 - - 10 - - - -
25/01:00am 5.8 SSE 3 7 1011.1 - 0.0 - - 10 - - - -
25/12:30am 5.1 SSE 3 8 1010.7 - 0.0 - - 10 - - - -
25/12:00am 5.5 SSW 6 13 1010.3 - 0.0 - - 10 - - - -
 
Date/Time
EST
Temp

°C
Wind Pressure Rain
since 9am
mm
Weather Cloud Vis
km
Sea
Height
m
Swell
Dir
 
Speed
knots
Gust
knots
hPa Trend Height
m
Period
s
Dir
24/11:30pm 5.8 S 6 10 1010.1 - 0.0 - - 10 - - - -
24/11:00pm 5.8 SSW 9 14 1009.5 - 0.0 - - 10 - - - -
24/10:30pm 6.1 SSW 13 21 1009.1 - 0.0 - - 10 - - - -
24/10:00pm 6.1 SSW 11 19 1008.9 - 0.0 - - 10 - - - -
24/09:30pm 6.1 SSW 10 17 1008.0 - 0.0 - - 10 - - - -
24/09:00pm 6.0 SSW 7 13 1007.5 - 0.0 - - 10 - - - -
24/08:30pm 6.2 SSW 5 13 1007.0 - 0.0 - - 10 - - - -
24/08:00pm 6.6 SSW 7 14 1006.3 - 0.0 - - 10 - - - -
24/07:30pm 5.8 SSW 5 9 1005.7 - 0.0 - - 10 - - - -
24/07:00pm 4.6 WSW 1 4 1005.1 - 0.0 - - 10 - - - -
24/06:30pm 5.3 W 4 5 1004.4 - 0.0 - - 10 - - - -
24/06:00pm 6.1 SSW 6 9 1003.6 - 0.0 - - 10 - - - -
24/05:30pm 6.7 SSW 7 13 1002.9 - 0.0 - - 10 - - - -
24/05:00pm 6.7 SSW 7 10 1002.2 - 0.0 - - 10 - - - -
24/04:30pm 6.7 SSW 6 8 1001.5 - 0.0 - - 10 - - - -
24/04:00pm 7.8 SSW 7 10 1001.0 - 0.0 - - 10 - - - -
24/03:30pm 8.7 SW 6 9 1000.6 - 0.0 - - 10 - - - -
24/03:00pm 9.2 SSW 5 8 1000.1 - 0.0 - - 10 - - - -
24/02:30pm 9.4 SSW 6 11 999.3 - 0.0 - - 10 - - - -
24/02:00pm 11.1 W 4 9 998.8 - 0.0 - Partly cloudy 10 - - - -
24/01:30pm 10.6 W 4 6 998.6 - 0.0 - - 10 - - - -
24/01:00pm 8.7 WSW 5 7 998.4 - 0.0 - - 10 - - - -
24/12:30pm 8.1 WSW 4 8 998.3 - 0.0 - - 10 - - - -
24/12:00pm 7.4 W 5 9 998.3 - 0.0 - Mostly cloudy 10 - - - -
24/11:30am 7.3 WSW 4 10 998.4 - 0.0 - Cloudy 10 - - - -
24/11:00am 7.1 WSW 4 7 998.4 - 0.0 - Cloudy 10 - - - -
24/10:30am 6.5 W 3 6 998.6 - 0.0 - Partly cloudy 10 - - - -
24/10:00am 5.1 W 2 5 998.3 - 0.0 - Cloudy 10 - - - -
24/09:30am 4.7 N 5 6 998.0 - 0.0 - Partly cloudy 10 - - - -
24/09:00am 4.7 NW 4 6 997.7 - 10.6 Fine Mostly cloudy 25 - - - -
24/08:30am 3.5 NNW 5 6 997.3 - 10.6 - - 10 - - - -
24/08:00am 3.3 N 6 8 997.0 - 10.6 - - 10 - - - -
24/07:30am 2.9 NNW 4 7 996.7 - 10.6 - - 10 - - - -
24/07:00am 3.2 NW 4 7 996.3 - 10.6 - - 10 - - - -
24/06:30am 3.5 NW 6 7 996.1 - 10.6 - - 10 - - - -
24/06:00am 3.2 NW 5 8 996.0 - 10.6 - - 10 - - - -
24/05:30am 3.5 N 5 7 995.6 - 10.6 - - 10 - - - -
24/05:00am 4.1 NW 2 6 995.2 - 10.6 - - 10 - - - -
24/04:30am 4.8 NNW 4 7 995.0 - 10.6 - - 10 - - - -
24/04:00am 5.3 WNW 3 5 995.0 - 10.6 - - 10 - - - -
24/03:30am 5.9 NW 1 4 995.1 - 10.6 - - 10 - - - -
24/03:00am 5.8 NNW 1 4 995.1 - 10.6 - - 10 - - - -
24/02:30am 6.3 WNW 1 5 994.8 - 10.6 - Partly cloudy 10 - - - -
24/02:00am 6.5 W 3 6 994.6 - 10.6 - Cloudy 10 - - - -
24/01:30am 6.5 W 6 9 993.9 - 10.6 - - 10 - - - -

Other Formats:

Comma delimited format used in spreadsheet applications
http://www.bom.gov.au/fwo/IDT60701/IDT60701.95981.axf

JavaScript Object Notation format (JSON) in row-major order
http://www.bom.gov.au/fwo/IDT60701/IDT60701.95981.json